Terminal Aerodrome Forecast
Issued by NWS

Home | Current Version | Previous Version | Graphics & Text | Print | Product List | Glossary On
Versions: 1 2 3 4 5 6 7 8 9 10 11 12 13 14 15 16 17 18 19 20 21
000
FTUS43 KMPX 191700
TAFAXN
TAF
KAXN 191738Z 1918/2018 32007KT P6SM SCT025 SCT200
     FM200200 VRB02KT P6SM SCT200
     FM200600 14003KT 4SM BR SCT002
      TEMPO 2008/2012 1SM BR BKN001
     FM201500 15008KT P6SM SCT250=

USA.gov is the U.S. government's official web portal to all federal, state and local government web resources and services.